Iverson, Texas
Current Conditions -  °F | °C
As of 2:15 PM on Wednesday 26 Nov 2014 (Local Time) from KINJ Reporting Station
Clear Clear  
Wind Chill: 66°   Ceiling: Unl
Heat Index: 66°   Visibility: 10mi
Dew Point: 28°   Wind: 14mph
Humidity: 24%   Direction: 330°NNW
Pressure: 30.16"   Gusts: 17mph
Location:  32.1748°N, 96.9849°W
Report Text: KINJ 262015Z AUTO 33012G15KT 10SM CLR 19/M02 A3016 RMK AO2 T01901021
Loading
Personal Weather Stations






























Interactive Weather Map New forecast layout! Learn more

10-Day Weather Forecast

Advertisements
Track Severe Weather on mobile